Aérodrome :
LOGIN :

S'inscrire | Disclaimer

   EN    FR    IT 

 










Légende :    VFR   VFR Marginal   IFR   IFR Intensif   IFR Très Intensif
Visi : 
Plafond : 
>= 8 km
>= 3000ft
5 à 8 km
1000 à 3000 ft
1500m à 5 km
500 à 1000 ft
800 à 1500m
200 à 500 ft
< 800m
< 200 ft
Symboles :   Orages  Brouillard  Fortes neiges  Fortes précipitations  Vent > 20 kt
SIGMETs :   Divers  Orages  Givrage  Turbulence  Onde Orograph.  Cendres Volcan.






- Altitude de l'aérodrome : 156 ft
- Code IATA : OMO


LQMO - Mostar

DERNIER METAR :
  • 251800Z 36003KT 8000 SCT030 BKN060 09/09 Q1023

METARs EXPIRÉS :
  • 251700Z VRB01KT 9000 4000S -RA FEW020 SCT035 BKN055 09/08 Q1023
  • 251600Z 31003KT 9000 4000SE FEW025 SCT035 BKN055 10/08 Q1023

TAF TAF LQMO
Valide du 25 à 18h jusqu'au 26 à 18h UTC


251700Z 2518/2618 34005KT 6000 SCT035 BKN050 TX11/2613Z TN04/2606Z
PROB40
TEMPO 2518/2618 4000 -RA BR



MET'MAP, la Météo Aéronautique d'un coup d'oeil ! - Copyright ORBIFLY Décembre 2007 - Disclaimer

ORBIFLY MET'MAP TEAM :

Programmation & Développement : Alexandra Zaïnal
Sur une idée originale de : Baudouin d'Aumeries
Assistance à la programmation : Marc-Olivier Méhu
Soutien technique & logistique : Manuel Goepfert

Contact : metmap@orbifly.com




SOURCES & CREDITS :

   NOAA